createdAt,value
2018-06-23T00:00:58.971Z,0.00
2018-06-23T00:01:59.156Z,0.00
2018-06-23T00:02:59.354Z,0.00
2018-06-23T00:03:59.548Z,0.00
2018-06-23T00:04:59.749Z,0.00
2018-06-23T00:05:59.941Z,0.00
2018-06-23T00:07:00.129Z,0.00
2018-06-23T00:08:00.375Z,0.00
2018-06-23T00:09:00.568Z,0.00
2018-06-23T00:10:00.759Z,0.00
2018-06-23T00:11:00.939Z,0.00
2018-06-23T00:13:33.246Z,0.00
2018-06-23T00:14:33.420Z,0.00
2018-06-23T00:15:33.640Z,0.00
2018-06-23T00:16:33.827Z,0.00
2018-06-23T00:17:34.033Z,0.00
2018-06-23T00:18:34.217Z,0.00
2018-06-23T00:19:34.416Z,0.00
2018-06-23T00:20:34.603Z,0.00
2018-06-23T00:21:34.794Z,0.00
2018-06-23T00:22:34.991Z,0.00
2018-06-23T00:23:35.184Z,0.00
2018-06-23T00:24:35.362Z,0.00
2018-06-23T00:25:35.550Z,0.00
2018-06-23T00:26:35.742Z,0.00
2018-06-23T00:27:35.938Z,0.00
2018-06-23T00:28:36.125Z,0.00
2018-06-23T00:29:36.328Z,0.00
2018-06-23T00:30:36.519Z,0.00
2018-06-23T00:31:36.724Z,0.00
2018-06-23T00:32:36.934Z,0.00
2018-06-23T00:33:37.130Z,0.00
2018-06-23T00:34:37.327Z,0.00
2018-06-23T00:35:37.507Z,0.00
2018-06-23T00:36:37.698Z,0.00
2018-06-23T00:37:37.893Z,0.00
2018-06-23T00:38:38.077Z,0.00
2018-06-23T00:41:10.222Z,0.00
2018-06-23T00:42:10.393Z,0.00
2018-06-23T00:43:10.597Z,0.00
2018-06-23T00:44:10.776Z,0.00
2018-06-23T00:45:10.971Z,0.00
2018-06-23T00:46:11.158Z,0.00
2018-06-23T00:47:11.353Z,0.00
2018-06-23T00:48:11.544Z,0.00
2018-06-23T00:49:11.749Z,0.00
2018-06-23T00:50:11.932Z,0.00
2018-06-23T00:51:12.117Z,0.00
2018-06-23T00:52:12.378Z,0.00
2018-06-23T00:53:12.450Z,0.00
2018-06-23T00:54:12.626Z,0.00
2018-06-23T00:55:12.830Z,0.00
2018-06-23T00:56:13.016Z,0.00
2018-06-23T00:57:13.211Z,0.00
2018-06-23T00:58:13.391Z,0.00
2018-06-23T00:59:13.885Z,0.00
2018-06-23T01:00:13.827Z,0.00
2018-06-23T01:01:14.023Z,0.00
2018-06-23T01:02:14.228Z,0.00
2018-06-23T01:03:14.423Z,0.00
2018-06-23T01:04:14.634Z,0.00
2018-06-23T01:05:14.841Z,0.00
2018-06-23T01:06:15.032Z,0.00
2018-06-23T01:07:15.230Z,0.00
2018-06-23T01:08:15.420Z,0.00
2018-06-23T01:09:15.611Z,0.00
2018-06-23T01:10:15.811Z,0.00
2018-06-23T01:11:16.022Z,0.00
2018-06-23T01:12:16.227Z,0.00
2018-06-23T01:13:16.435Z,0.00
2018-06-23T01:14:16.619Z,0.00
2018-06-23T01:15:16.829Z,0.00
2018-06-23T01:16:17.034Z,0.00
2018-06-23T01:17:17.249Z,0.00
2018-06-23T01:18:17.423Z,0.00
2018-06-23T01:19:17.623Z,0.00
2018-06-23T01:20:17.810Z,0.00
2018-06-23T01:21:17.995Z,0.00
2018-06-23T01:22:18.191Z,0.00
2018-06-23T01:23:18.375Z,0.00
2018-06-23T01:24:18.586Z,0.00
2018-06-23T01:25:18.796Z,0.00
2018-06-23T01:26:18.999Z,0.00
2018-06-23T01:27:19.188Z,0.00
2018-06-23T01:28:19.389Z,0.00
2018-06-23T01:29:19.591Z,0.00
2018-06-23T01:30:19.792Z,0.00
2018-06-23T01:31:20.005Z,0.00
2018-06-23T01:32:20.214Z,0.00
2018-06-23T01:33:20.418Z,0.00
2018-06-23T01:34:20.605Z,0.00
2018-06-23T01:35:20.795Z,0.00
2018-06-23T01:36:20.980Z,0.00
2018-06-23T01:37:21.181Z,0.00
2018-06-23T01:38:21.366Z,0.00
2018-06-23T01:39:21.560Z,0.00
2018-06-23T01:40:21.765Z,0.00
2018-06-23T01:41:21.946Z,0.00
2018-06-23T01:42:22.156Z,0.00
2018-06-23T01:43:22.362Z,0.00
2018-06-23T01:44:22.563Z,0.00
2018-06-23T01:46:54.704Z,0.00
2018-06-23T01:47:54.871Z,0.00
2018-06-23T01:48:55.071Z,0.00
2018-06-23T01:49:55.276Z,0.00
2018-06-23T01:50:55.500Z,0.00
2018-06-23T01:51:55.692Z,0.00
2018-06-23T01:52:55.871Z,0.00
2018-06-23T01:53:56.064Z,0.00
2018-06-23T01:54:56.264Z,0.00
2018-06-23T01:55:56.464Z,0.00
2018-06-23T01:56:56.665Z,0.00
2018-06-23T01:57:56.841Z,0.00
2018-06-23T01:58:57.033Z,0.00
2018-06-23T01:59:57.234Z,0.00
2018-06-23T02:00:57.434Z,0.00
2018-06-23T02:01:57.620Z,0.00
2018-06-23T02:02:57.826Z,0.00
2018-06-23T02:03:58.028Z,0.00
2018-06-23T02:04:58.236Z,0.00
2018-06-23T02:05:58.447Z,0.00
2018-06-23T02:06:58.644Z,0.00
2018-06-23T02:07:58.853Z,0.00
2018-06-23T02:08:59.044Z,0.00
2018-06-23T02:09:59.248Z,0.00
2018-06-23T02:10:59.429Z,0.00
2018-06-23T02:11:59.614Z,0.00
2018-06-23T02:12:59.819Z,0.00
2018-06-23T02:14:00.007Z,0.00
2018-06-23T02:15:00.214Z,0.00
2018-06-23T02:16:00.399Z,0.00
2018-06-23T02:17:00.605Z,0.00
2018-06-23T02:18:00.799Z,0.00
2018-06-23T02:19:00.985Z,0.00
2018-06-23T02:20:01.165Z,0.00
2018-06-23T02:21:01.382Z,0.00
2018-06-23T02:22:01.594Z,0.00
2018-06-23T02:23:01.783Z,0.00
2018-06-23T02:24:01.986Z,0.00
2018-06-23T02:25:02.179Z,0.00
2018-06-23T02:26:02.366Z,0.00
2018-06-23T02:27:02.577Z,0.00
2018-06-23T02:28:02.785Z,0.00
2018-06-23T02:29:02.971Z,0.00
2018-06-23T02:30:03.159Z,0.00
2018-06-23T02:31:03.360Z,0.00
2018-06-23T02:33:35.574Z,4.00
2018-06-23T02:34:35.744Z,0.00
2018-06-23T02:37:07.831Z,4.00
2018-06-23T02:38:08.010Z,4.00
2018-06-23T02:39:08.197Z,4.00
2018-06-23T02:40:08.410Z,4.00
2018-06-23T02:41:08.605Z,4.00
2018-06-23T02:42:08.783Z,4.00
2018-06-23T02:43:08.966Z,4.00
2018-06-23T02:44:09.155Z,4.00
2018-06-23T02:45:09.344Z,8.00
2018-06-23T02:46:09.540Z,8.00
2018-06-23T02:47:09.729Z,8.00
2018-06-23T02:49:42.099Z,12.00
2018-06-23T02:50:42.017Z,12.00
2018-06-23T02:51:42.218Z,12.00
2018-06-23T02:52:42.406Z,16.00
2018-06-23T02:53:42.592Z,12.00
2018-06-23T02:54:42.785Z,16.00
2018-06-23T02:55:42.972Z,16.00
2018-06-23T02:56:43.179Z,20.00
2018-06-23T02:57:43.396Z,16.00
2018-06-23T02:58:43.588Z,20.00
2018-06-23T02:59:43.793Z,24.00
2018-06-23T03:00:44.000Z,28.00
2018-06-23T03:01:44.189Z,32.00
2018-06-23T03:02:44.376Z,36.00
2018-06-23T03:03:44.565Z,36.00
2018-06-23T03:04:44.762Z,40.00
2018-06-23T03:05:44.942Z,44.00
2018-06-23T03:06:45.116Z,52.00
2018-06-23T03:07:45.319Z,64.00
2018-06-23T03:08:45.523Z,84.00
2018-06-23T03:09:45.728Z,116.00
2018-06-23T03:10:45.938Z,152.00
2018-06-23T03:11:46.149Z,184.00
2018-06-23T03:12:46.343Z,192.00
2018-06-23T03:13:46.547Z,200.00
2018-06-23T03:14:46.736Z,200.00
2018-06-23T03:15:46.961Z,176.00
2018-06-23T03:16:47.155Z,156.00
2018-06-23T03:17:47.359Z,140.00
2018-06-23T03:18:47.521Z,132.00
2018-06-23T03:19:47.720Z,136.00
2018-06-23T03:20:47.928Z,156.00
2018-06-23T03:21:48.138Z,172.00
2018-06-23T03:22:48.341Z,196.00
2018-06-23T03:23:48.535Z,212.00
2018-06-23T03:24:48.740Z,236.00
2018-06-23T03:25:48.932Z,236.00
2018-06-23T03:26:49.134Z,252.00
2018-06-23T03:27:49.326Z,280.00
2018-06-23T03:28:49.514Z,304.00
2018-06-23T03:29:49.703Z,344.00
2018-06-23T03:30:49.886Z,396.00
2018-06-23T03:31:50.080Z,440.00
2018-06-23T03:32:50.259Z,492.00
2018-06-23T03:33:50.451Z,556.00
2018-06-23T03:34:50.646Z,632.00
2018-06-23T03:37:22.748Z,800.00
2018-06-23T03:38:22.916Z,872.00
2018-06-23T03:39:23.117Z,928.00
2018-06-23T03:40:23.327Z,972.00
2018-06-23T03:41:23.507Z,996.00
2018-06-23T03:42:23.695Z,960.00
2018-06-23T03:43:23.883Z,916.00
2018-06-23T03:44:24.067Z,860.00
2018-06-23T03:45:24.285Z,812.00
2018-06-23T03:46:24.476Z,840.00
2018-06-23T03:47:24.682Z,852.00
2018-06-23T03:48:24.880Z,812.00
2018-06-23T03:49:25.056Z,804.00
2018-06-23T03:50:25.265Z,848.00
2018-06-23T03:51:25.442Z,956.00
2018-06-23T03:52:25.702Z,1060.00
2018-06-23T03:53:25.886Z,1048.00
2018-06-23T03:54:26.071Z,1076.00
2018-06-23T03:55:26.277Z,1144.00
2018-06-23T03:56:26.469Z,1212.00
2018-06-23T03:57:26.661Z,1280.00
2018-06-23T03:58:26.845Z,1360.00
2018-06-23T03:59:27.076Z,1360.00
2018-06-23T04:00:27.254Z,1376.00
2018-06-23T04:01:27.473Z,1444.00
2018-06-23T04:02:27.646Z,1376.00
2018-06-23T04:03:27.826Z,1408.00
2018-06-23T04:04:28.028Z,1556.00
2018-06-23T04:05:28.228Z,1712.00
2018-06-23T04:06:28.503Z,1872.00
2018-06-23T04:07:28.565Z,1936.00
2018-06-23T04:08:28.765Z,1964.00
2018-06-23T04:09:28.967Z,1984.00
2018-06-23T04:10:29.148Z,1808.00
2018-06-23T04:11:29.384Z,1660.00
2018-06-23T04:12:29.533Z,1500.00
2018-06-23T04:13:29.815Z,1416.00
2018-06-23T04:14:29.900Z,1284.00
2018-06-23T04:15:30.086Z,1228.00
2018-06-23T04:16:30.285Z,1228.00
2018-06-23T04:17:30.484Z,1208.00
2018-06-23T04:18:30.669Z,1304.00
2018-06-23T04:19:30.861Z,1448.00
2018-06-23T04:20:31.063Z,1512.00
2018-06-23T04:23:03.442Z,1596.00
2018-06-23T04:24:03.488Z,1600.00
2018-06-23T04:25:03.670Z,1716.00
2018-06-23T04:26:03.856Z,1832.00
2018-06-23T04:27:04.149Z,1852.00
2018-06-23T04:28:04.235Z,1752.00
2018-06-23T04:29:04.442Z,1956.00
2018-06-23T04:30:04.642Z,1924.00
2018-06-23T04:31:04.824Z,1868.00
2018-06-23T04:32:05.008Z,1888.00
2018-06-23T04:33:05.210Z,2028.00
2018-06-23T04:34:05.395Z,2044.00
2018-06-23T04:35:05.614Z,2032.00
2018-06-23T04:36:05.823Z,2036.00
2018-06-23T04:37:05.998Z,2100.00
2018-06-23T04:39:38.180Z,2300.00
2018-06-23T04:40:38.349Z,2416.00
2018-06-23T04:41:38.542Z,2604.00
2018-06-23T04:42:38.749Z,2600.00
2018-06-23T04:43:38.948Z,2716.00
2018-06-23T04:44:39.142Z,2828.00
2018-06-23T04:45:39.330Z,2808.00
2018-06-23T04:46:39.543Z,2912.00
2018-06-23T04:47:39.738Z,3000.00
2018-06-23T04:48:39.940Z,3848.00
2018-06-23T04:49:40.116Z,3928.00
2018-06-23T04:50:40.308Z,3888.00
2018-06-23T04:51:40.491Z,3764.00
2018-06-23T04:52:40.685Z,3660.00
2018-06-23T04:53:40.893Z,3588.00
2018-06-23T04:54:41.074Z,3844.00
2018-06-23T04:57:13.386Z,3876.00
2018-06-23T04:58:13.557Z,3932.00
2018-06-23T04:59:13.749Z,3948.00
2018-06-23T05:00:13.938Z,3792.00
2018-06-23T05:02:46.110Z,3328.00
2018-06-23T05:03:46.267Z,3236.00
2018-06-23T05:04:46.468Z,3244.00
2018-06-23T05:05:46.660Z,3404.00
2018-06-23T05:06:46.865Z,3628.00
2018-06-23T05:07:47.063Z,4000.00
2018-06-23T05:08:47.274Z,4272.00
2018-06-23T05:09:47.452Z,4484.00
2018-06-23T05:10:47.791Z,4512.00
2018-06-23T05:11:47.872Z,4332.00
2018-06-23T05:12:48.066Z,4160.00
2018-06-23T05:13:48.281Z,4032.00
2018-06-23T05:14:48.465Z,3792.00
2018-06-23T05:15:48.664Z,3628.00
2018-06-23T05:16:48.855Z,3748.00
2018-06-23T05:17:49.045Z,3984.00
2018-06-23T05:18:49.240Z,4096.00
2018-06-23T05:19:49.449Z,4128.00
2018-06-23T05:20:49.643Z,4064.00
2018-06-23T05:21:49.826Z,4052.00
2018-06-23T05:22:50.018Z,4028.00
2018-06-23T05:23:50.214Z,4120.00
2018-06-23T05:24:50.434Z,4236.00
2018-06-23T05:25:50.634Z,4332.00
2018-06-23T05:26:50.838Z,4420.00
2018-06-23T05:27:51.021Z,4660.00
2018-06-23T05:28:51.205Z,4996.00
2018-06-23T05:29:51.389Z,5228.00
2018-06-23T05:30:51.594Z,5404.00
2018-06-23T05:31:51.896Z,5548.00
2018-06-23T05:32:52.034Z,5564.00
2018-06-23T05:35:24.176Z,6180.00
2018-06-23T05:36:24.344Z,7184.00
2018-06-23T05:37:24.564Z,8748.00
2018-06-23T05:38:24.758Z,10620.00
2018-06-23T05:39:24.942Z,11268.00
2018-06-23T05:40:25.129Z,12648.00
2018-06-23T05:41:25.325Z,14712.00
2018-06-23T05:42:25.512Z,13792.00
2018-06-23T05:43:25.694Z,12504.00
2018-06-23T05:45:58.079Z,12688.00
2018-06-23T05:46:58.002Z,12372.00
2018-06-23T05:47:58.193Z,12088.00
2018-06-23T05:48:58.401Z,11644.00
2018-06-23T05:49:58.602Z,11352.00
2018-06-23T05:50:58.805Z,11140.00
2018-06-23T05:51:59.005Z,10972.00
2018-06-23T05:52:59.223Z,10788.00
2018-06-23T05:53:59.405Z,10464.00
2018-06-23T05:54:59.606Z,10228.00
2018-06-23T05:55:59.805Z,10112.00
2018-06-23T05:56:59.994Z,10100.00
2018-06-23T05:58:00.191Z,10244.00
2018-06-23T05:59:00.370Z,10548.00
2018-06-23T06:00:00.570Z,11056.00
2018-06-23T06:01:00.765Z,12188.00
2018-06-23T06:02:00.966Z,29728.00
2018-06-23T06:03:01.248Z,29824.00
2018-06-23T06:04:01.319Z,31200.00
2018-06-23T06:05:01.512Z,48800.00
2018-06-23T06:06:01.715Z,30976.00
2018-06-23T06:08:33.545Z,27968.00
2018-06-23T06:09:33.727Z,41600.00
2018-06-23T06:10:33.970Z,16288.00
2018-06-23T06:11:34.177Z,13164.00
2018-06-23T06:12:34.367Z,10716.00
2018-06-23T06:13:34.576Z,9276.00
2018-06-23T06:14:34.790Z,8740.00
2018-06-23T06:15:34.976Z,8396.00
2018-06-23T06:16:35.186Z,7688.00
2018-06-23T06:17:35.386Z,7104.00
2018-06-23T06:18:35.585Z,6392.00
2018-06-23T06:19:35.788Z,5992.00
2018-06-23T06:20:35.996Z,6040.00
2018-06-23T06:21:36.194Z,6344.00
2018-06-23T06:22:36.399Z,6360.00
2018-06-23T06:23:36.612Z,6164.00
2018-06-23T06:24:36.800Z,5752.00
2018-06-23T06:25:36.995Z,5532.00
2018-06-23T06:26:37.219Z,5468.00
2018-06-23T06:29:09.360Z,5976.00
2018-06-23T06:30:09.531Z,6080.00
2018-06-23T06:31:09.718Z,6356.00
2018-06-23T06:32:09.930Z,6412.00
2018-06-23T06:33:10.120Z,6224.00
2018-06-23T06:34:10.309Z,6032.00
2018-06-23T06:35:10.493Z,5796.00
2018-06-23T06:36:10.674Z,5680.00
2018-06-23T06:37:10.859Z,5784.00
2018-06-23T06:38:11.068Z,6032.00
2018-06-23T06:39:11.266Z,6368.00
2018-06-23T06:40:11.480Z,6756.00
2018-06-23T06:41:11.673Z,6816.00
2018-06-23T06:42:11.878Z,6612.00
2018-06-23T06:43:12.054Z,6488.00
2018-06-23T06:44:12.260Z,6468.00
2018-06-23T06:45:12.473Z,6400.00
2018-06-23T06:46:12.673Z,6440.00
2018-06-23T06:47:12.877Z,6612.00
2018-06-23T06:48:13.083Z,6424.00
2018-06-23T06:49:13.293Z,6280.00
2018-06-23T06:50:13.494Z,6260.00
2018-06-23T06:51:13.685Z,6580.00
2018-06-23T06:52:13.889Z,7116.00
2018-06-23T06:53:14.077Z,7684.00
2018-06-23T06:54:14.266Z,7920.00
2018-06-23T06:55:14.473Z,7908.00
2018-06-23T06:56:14.685Z,7608.00
2018-06-23T06:57:14.994Z,7780.00
2018-06-23T06:58:15.105Z,8388.00
2018-06-23T06:59:15.297Z,8244.00
2018-06-23T07:00:15.489Z,8308.00
2018-06-23T07:02:47.308Z,9684.00
2018-06-23T07:03:47.490Z,9792.00
2018-06-23T07:04:47.766Z,10092.00
2018-06-23T07:05:47.848Z,10688.00
2018-06-23T07:06:48.057Z,9724.00
2018-06-23T07:07:48.268Z,8564.00
2018-06-23T07:08:48.493Z,8416.00
2018-06-23T07:09:48.629Z,8424.00
2018-06-23T07:10:48.819Z,9316.00
2018-06-23T07:11:49.016Z,10624.00
2018-06-23T07:12:49.218Z,11204.00
2018-06-23T07:13:49.397Z,11268.00
2018-06-23T07:14:49.585Z,11584.00
2018-06-23T07:15:49.791Z,10700.00
2018-06-23T07:16:49.975Z,9940.00
2018-06-23T07:17:50.166Z,8772.00
2018-06-23T07:18:50.364Z,8580.00
2018-06-23T07:19:50.599Z,9304.00
2018-06-23T07:20:50.772Z,8952.00
2018-06-23T07:21:50.979Z,8496.00
2018-06-23T07:22:51.168Z,8248.00
2018-06-23T07:23:51.500Z,8000.00
2018-06-23T07:24:51.554Z,7596.00
2018-06-23T07:25:51.767Z,7192.00
2018-06-23T07:26:52.020Z,6816.00
2018-06-23T07:27:52.178Z,6724.00
2018-06-23T07:28:52.374Z,6664.00
2018-06-23T07:29:52.576Z,6244.00
2018-06-23T07:30:52.876Z,5992.00
2018-06-23T07:31:53.002Z,5672.00
2018-06-23T07:32:53.185Z,5300.00
2018-06-23T07:33:53.376Z,5300.00
2018-06-23T07:34:53.668Z,5104.00
2018-06-23T07:35:53.788Z,4688.00
2018-06-23T07:36:53.966Z,4288.00
2018-06-23T07:37:54.169Z,4224.00
2018-06-23T07:38:54.370Z,4256.00
2018-06-23T07:39:54.578Z,4232.00
2018-06-23T07:40:54.765Z,4132.00
2018-06-23T07:41:54.956Z,4408.00
2018-06-23T07:42:55.144Z,4668.00
2018-06-23T07:43:55.364Z,4608.00
2018-06-23T07:44:55.574Z,4524.00
2018-06-23T07:45:55.773Z,4336.00
2018-06-23T07:46:55.992Z,4224.00
2018-06-23T07:47:56.281Z,4400.00
2018-06-23T07:48:56.346Z,4688.00
2018-06-23T07:49:56.554Z,5400.00
2018-06-23T07:50:56.755Z,5796.00
2018-06-23T07:51:56.954Z,5508.00
2018-06-23T07:52:57.154Z,4820.00
2018-06-23T07:53:57.355Z,4456.00
2018-06-23T07:56:29.193Z,4792.00
2018-06-23T07:57:29.367Z,5040.00
2018-06-23T07:58:29.555Z,5768.00
2018-06-23T07:59:29.751Z,6640.00
2018-06-23T08:00:29.956Z,6864.00
2018-06-23T08:01:30.160Z,6732.00
2018-06-23T08:02:30.378Z,6720.00
2018-06-23T08:03:30.579Z,6860.00
2018-06-23T08:04:30.791Z,6392.00
2018-06-23T08:05:30.974Z,5544.00
2018-06-23T08:06:31.183Z,5180.00
2018-06-23T08:07:31.387Z,5372.00
2018-06-23T08:08:31.588Z,5644.00
2018-06-23T08:09:31.776Z,5964.00
2018-06-23T08:10:31.983Z,6344.00
2018-06-23T08:11:32.178Z,6396.00
2018-06-23T08:12:32.373Z,6244.00
2018-06-23T08:13:32.593Z,6108.00
2018-06-23T08:14:32.781Z,6120.00
2018-06-23T08:15:32.984Z,6216.00
2018-06-23T08:16:33.207Z,6248.00
2018-06-23T08:17:33.416Z,6172.00
2018-06-23T08:18:33.645Z,6352.00
2018-06-23T08:19:33.808Z,6700.00
2018-06-23T08:20:34.015Z,7232.00
2018-06-23T08:21:34.227Z,7644.00
2018-06-23T08:22:34.426Z,7716.00
2018-06-23T08:23:34.625Z,8020.00
2018-06-23T08:24:34.833Z,8192.00
2018-06-23T08:25:35.043Z,8084.00
2018-06-23T08:26:35.352Z,8004.00
2018-06-23T08:27:35.428Z,7720.00
2018-06-23T08:28:35.622Z,7260.00
2018-06-23T08:29:35.821Z,6904.00
2018-06-23T08:30:36.032Z,7020.00
2018-06-23T08:31:36.239Z,7324.00
2018-06-23T08:32:36.437Z,7908.00
2018-06-23T08:33:36.635Z,8716.00
2018-06-23T08:34:36.842Z,9088.00
2018-06-23T08:35:37.050Z,9008.00
2018-06-23T08:36:37.244Z,8844.00
2018-06-23T08:37:37.454Z,8740.00
2018-06-23T08:38:37.646Z,9088.00
2018-06-23T08:39:37.847Z,10072.00
2018-06-23T08:40:38.056Z,10772.00
2018-06-23T08:43:10.192Z,11952.00
2018-06-23T08:44:10.359Z,11424.00
2018-06-23T08:45:10.554Z,10936.00
2018-06-23T08:46:10.739Z,10600.00
2018-06-23T08:47:10.926Z,10532.00
2018-06-23T08:48:11.112Z,10484.00
2018-06-23T08:49:11.373Z,10892.00
2018-06-23T08:50:11.502Z,10352.00
2018-06-23T08:51:11.718Z,9052.00
2018-06-23T08:52:11.900Z,8356.00
2018-06-23T08:53:12.102Z,7828.00
2018-06-23T08:54:12.315Z,7504.00
2018-06-23T08:55:12.524Z,7264.00
2018-06-23T08:56:12.734Z,7060.00
2018-06-23T08:57:12.943Z,7296.00
2018-06-23T08:58:13.163Z,7648.00
2018-06-23T08:59:13.377Z,7980.00
2018-06-23T09:00:13.585Z,8424.00
2018-06-23T09:01:13.796Z,8508.00
2018-06-23T09:02:14.005Z,8232.00
2018-06-23T09:03:14.205Z,7948.00
2018-06-23T09:04:14.417Z,7988.00
2018-06-23T09:05:14.633Z,7968.00
2018-06-23T09:06:14.817Z,8036.00
2018-06-23T09:07:15.008Z,8228.00
2018-06-23T09:08:15.192Z,8568.00
2018-06-23T09:09:15.396Z,8916.00
2018-06-23T09:10:15.581Z,8736.00
2018-06-23T09:11:15.782Z,8108.00
2018-06-23T09:12:15.963Z,8020.00
2018-06-23T09:13:16.155Z,7932.00
2018-06-23T09:14:16.366Z,7704.00
2018-06-23T09:15:16.576Z,7448.00
2018-06-23T09:16:16.788Z,7392.00
2018-06-23T09:17:16.986Z,7580.00
2018-06-23T09:18:17.178Z,7712.00
2018-06-23T09:19:17.365Z,7540.00
2018-06-23T09:20:17.556Z,7564.00
2018-06-23T09:21:17.768Z,7728.00
2018-06-23T09:22:17.956Z,7880.00
2018-06-23T09:23:18.168Z,7600.00
2018-06-23T09:24:18.376Z,7508.00
2018-06-23T09:25:18.560Z,7276.00
2018-06-23T09:26:18.762Z,7040.00
2018-06-23T09:27:18.957Z,6892.00
2018-06-23T09:28:19.158Z,7092.00
2018-06-23T09:29:19.368Z,7480.00
2018-06-23T09:30:19.578Z,7412.00
2018-06-23T09:31:19.766Z,7448.00
2018-06-23T09:32:19.970Z,7580.00
2018-06-23T09:33:20.280Z,7788.00
2018-06-23T09:34:20.349Z,7688.00
2018-06-23T09:35:20.550Z,7760.00
2018-06-23T09:36:20.757Z,7800.00
2018-06-23T09:37:20.970Z,7412.00
2018-06-23T09:38:21.160Z,7008.00
2018-06-23T09:39:21.380Z,6656.00
2018-06-23T09:40:21.598Z,6432.00
2018-06-23T09:41:21.801Z,6340.00
2018-06-23T09:42:21.997Z,6192.00
2018-06-23T09:43:22.180Z,5812.00
2018-06-23T09:44:22.375Z,5448.00
2018-06-23T09:45:22.576Z,5200.00
2018-06-23T09:46:22.786Z,4956.00
2018-06-23T09:47:22.979Z,4672.00
2018-06-23T09:48:23.173Z,4504.00
2018-06-23T09:49:23.359Z,4544.00
2018-06-23T09:50:23.557Z,4716.00
2018-06-23T09:51:23.867Z,4896.00
2018-06-23T09:52:23.964Z,4960.00
2018-06-23T09:53:24.149Z,4896.00
2018-06-23T09:54:24.360Z,4888.00
2018-06-23T09:55:24.560Z,4804.00
2018-06-23T09:56:24.771Z,4748.00
2018-06-23T09:57:24.962Z,4920.00
2018-06-23T09:58:25.176Z,5116.00
2018-06-23T09:59:25.387Z,5284.00
2018-06-23T10:00:25.598Z,5484.00
2018-06-23T10:01:25.806Z,5364.00
2018-06-23T10:02:26.012Z,5228.00
2018-06-23T10:03:26.220Z,4980.00
2018-06-23T10:04:26.427Z,4872.00
2018-06-23T10:05:26.643Z,4756.00
2018-06-23T10:06:26.853Z,4612.00
2018-06-23T10:07:27.082Z,4516.00
2018-06-23T10:08:27.441Z,4448.00
2018-06-23T10:09:27.475Z,4476.00
2018-06-23T10:10:27.666Z,4460.00
2018-06-23T10:11:27.922Z,4488.00
2018-06-23T10:12:28.008Z,4384.00
2018-06-23T10:13:28.192Z,4372.00
2018-06-23T10:14:28.399Z,4340.00
2018-06-23T10:15:28.609Z,4488.00
2018-06-23T10:16:28.791Z,4492.00
2018-06-23T10:17:28.993Z,4396.00
2018-06-23T10:18:29.196Z,4404.00
2018-06-23T10:19:29.398Z,4620.00
2018-06-23T10:20:29.606Z,4820.00
2018-06-23T10:21:29.825Z,4948.00
2018-06-23T10:22:30.026Z,4976.00
2018-06-23T10:23:30.229Z,5068.00
2018-06-23T10:24:30.452Z,4932.00
2018-06-23T10:25:30.642Z,4452.00
2018-06-23T10:26:30.850Z,4348.00
2018-06-23T10:27:31.057Z,4540.00
2018-06-23T10:28:31.267Z,4588.00
2018-06-23T10:29:31.458Z,4424.00
2018-06-23T10:30:31.646Z,4644.00
2018-06-23T10:31:31.867Z,4984.00
2018-06-23T10:32:32.080Z,5016.00
2018-06-23T10:33:32.297Z,5204.00
2018-06-23T10:34:32.538Z,5164.00
2018-06-23T10:35:32.617Z,5000.00
2018-06-23T10:36:32.826Z,4844.00
2018-06-23T10:37:33.031Z,4992.00
2018-06-23T10:38:33.250Z,5072.00
2018-06-23T10:39:33.462Z,4996.00
2018-06-23T10:40:33.728Z,4796.00
2018-06-23T10:41:33.888Z,4444.00
2018-06-23T10:42:34.100Z,4084.00
2018-06-23T10:43:34.306Z,3980.00
2018-06-23T10:44:34.520Z,4004.00
2018-06-23T10:45:34.716Z,3888.00
2018-06-23T10:46:34.909Z,3872.00
2018-06-23T10:47:35.115Z,3888.00
2018-06-23T10:48:35.326Z,3872.00
2018-06-23T10:49:35.540Z,4008.00
2018-06-23T10:50:35.747Z,3932.00
2018-06-23T10:51:35.926Z,3692.00
2018-06-23T10:52:36.132Z,3480.00
2018-06-23T10:53:36.415Z,3524.00
2018-06-23T10:54:36.500Z,3452.00
2018-06-23T10:55:36.707Z,3688.00
2018-06-23T10:56:36.910Z,4360.00
2018-06-23T10:57:37.104Z,4708.00
2018-06-23T10:58:37.317Z,4684.00
2018-06-23T10:59:37.528Z,4340.00
2018-06-23T11:00:37.708Z,4252.00
2018-06-23T11:01:37.897Z,4300.00
2018-06-23T11:02:38.085Z,4512.00
2018-06-23T11:03:38.292Z,4528.00
2018-06-23T11:04:38.541Z,4544.00
2018-06-23T11:05:38.705Z,4696.00
2018-06-23T11:06:38.891Z,4608.00
2018-06-23T11:07:39.110Z,4516.00
2018-06-23T11:08:39.299Z,4452.00
2018-06-23T11:09:39.486Z,4304.00
2018-06-23T11:10:39.667Z,4084.00
2018-06-23T11:11:39.897Z,3744.00
2018-06-23T11:12:40.099Z,3620.00
2018-06-23T11:13:40.313Z,4256.00
2018-06-23T11:14:40.505Z,4880.00
2018-06-23T11:15:40.702Z,5208.00
2018-06-23T11:16:40.913Z,6100.00
2018-06-23T11:17:41.115Z,6816.00
2018-06-23T11:18:41.322Z,6980.00
2018-06-23T11:19:41.524Z,7532.00
2018-06-23T11:20:41.717Z,8152.00
2018-06-23T11:21:41.915Z,9120.00
2018-06-23T11:22:42.117Z,9748.00
2018-06-23T11:23:42.334Z,11196.00
2018-06-23T11:24:42.541Z,13364.00
2018-06-23T11:25:42.742Z,14480.00
2018-06-23T11:26:42.935Z,14104.00
2018-06-23T11:27:43.117Z,12736.00
2018-06-23T11:28:43.311Z,10848.00
2018-06-23T11:29:43.517Z,10052.00
2018-06-23T11:30:43.705Z,9760.00
2018-06-23T11:31:43.890Z,10220.00
2018-06-23T11:32:44.089Z,10464.00
2018-06-23T11:33:44.287Z,10748.00
2018-06-23T11:34:44.472Z,10776.00
2018-06-23T11:35:44.660Z,10376.00
2018-06-23T11:36:44.846Z,9692.00
2018-06-23T11:37:45.065Z,8108.00
2018-06-23T11:38:45.271Z,6628.00
2018-06-23T11:39:45.470Z,6112.00
2018-06-23T11:40:45.657Z,5728.00
2018-06-23T11:41:45.857Z,5724.00
2018-06-23T11:42:46.059Z,6084.00
2018-06-23T11:43:46.255Z,6688.00
2018-06-23T11:44:46.470Z,6980.00
2018-06-23T11:45:46.659Z,6708.00
2018-06-23T11:46:46.865Z,6964.00
2018-06-23T11:47:47.048Z,7856.00
2018-06-23T11:48:47.234Z,8576.00
2018-06-23T11:49:47.445Z,9604.00
2018-06-23T11:50:47.668Z,10740.00
2018-06-23T11:51:47.879Z,10760.00
2018-06-23T11:54:20.286Z,10180.00
2018-06-23T11:55:20.206Z,10552.00
2018-06-23T11:56:20.403Z,11152.00
2018-06-23T11:57:20.616Z,11876.00
2018-06-23T11:58:20.799Z,12468.00
2018-06-23T11:59:20.987Z,13200.00
2018-06-23T12:00:21.197Z,14060.00
2018-06-23T12:01:21.403Z,14704.00
2018-06-23T12:02:21.618Z,15744.00
2018-06-23T12:03:21.828Z,16832.00
2018-06-23T12:04:22.033Z,17760.00
2018-06-23T12:05:22.253Z,18176.00
2018-06-23T12:06:22.442Z,18272.00
2018-06-23T12:07:22.664Z,18048.00
2018-06-23T12:08:22.856Z,17280.00
2018-06-23T12:09:23.069Z,16576.00
2018-06-23T12:11:55.205Z,16576.00
2018-06-23T12:12:55.377Z,15872.00
2018-06-23T12:13:55.584Z,15104.00
2018-06-23T12:14:55.795Z,14672.00
2018-06-23T12:17:27.919Z,15072.00
2018-06-23T12:18:28.096Z,15136.00
2018-06-23T12:19:28.313Z,16064.00
2018-06-23T12:20:28.519Z,18112.00
2018-06-23T12:21:28.710Z,18944.00
2018-06-23T12:22:28.929Z,19680.00
2018-06-23T12:23:29.118Z,20576.00
2018-06-23T12:24:29.319Z,20704.00
2018-06-23T12:25:29.554Z,19424.00
2018-06-23T12:26:29.704Z,17632.00
2018-06-23T12:27:29.909Z,15776.00
2018-06-23T12:28:30.111Z,14696.00
2018-06-23T12:29:30.328Z,13744.00
2018-06-23T12:30:30.628Z,12428.00
2018-06-23T12:31:30.769Z,9956.00
2018-06-23T12:32:30.959Z,8200.00
2018-06-23T12:33:31.153Z,7504.00
2018-06-23T12:34:31.496Z,8064.00
2018-06-23T12:35:31.581Z,9656.00
2018-06-23T12:36:31.780Z,10492.00
2018-06-23T12:37:31.962Z,12244.00
2018-06-23T12:38:32.168Z,14512.00
2018-06-23T12:39:32.388Z,16384.00
2018-06-23T12:40:32.584Z,16960.00
2018-06-23T12:41:32.813Z,17120.00
2018-06-23T12:42:33.006Z,16256.00
2018-06-23T12:43:33.220Z,14884.00
2018-06-23T12:44:33.445Z,13444.00
2018-06-23T12:45:33.649Z,12236.00
2018-06-23T12:46:33.964Z,11696.00
2018-06-23T12:47:34.061Z,11616.00
2018-06-23T12:48:34.389Z,11644.00
2018-06-23T12:49:34.456Z,10968.00
2018-06-23T12:50:34.665Z,10880.00
2018-06-23T12:51:34.869Z,11368.00
2018-06-23T12:52:35.081Z,11952.00
2018-06-23T12:53:35.295Z,12500.00
2018-06-23T12:54:35.496Z,13004.00